sensor_id;sensor_type;location;lat;lon;timestamp;temperature;humidity
19943;DHT22;10133;50.956;17.276;2023-03-01T00:01:02;-3.30;99.90
19943;DHT22;10133;50.956;17.276;2023-03-01T00:03:30;-3.30;99.90
19943;DHT22;10133;50.956;17.276;2023-03-01T00:05:56;-3.30;99.90
19943;DHT22;10133;50.956;17.276;2023-03-01T00:08:24;-3.40;99.90
19943;DHT22;10133;50.956;17.276;2023-03-01T00:11:24;-3.30;99.90
19943;DHT22;10133;50.956;17.276;2023-03-01T00:13:54;-3.40;99.90
19943;DHT22;10133;50.956;17.276;2023-03-01T00:16:25;-3.30;99.90
19943;DHT22;10133;50.956;17.276;2023-03-01T00:18:53;-3.40;99.90
19943;DHT22;10133;50.956;17.276;2023-03-01T00:21:21;-3.30;99.90
19943;DHT22;10133;50.956;17.276;2023-03-01T00:23:49;-3.30;99.90
19943;DHT22;10133;50.956;17.276;2023-03-01T00:26:17;-3.40;99.90
19943;DHT22;10133;50.956;17.276;2023-03-01T00:28:45;-3.40;99.90
19943;DHT22;10133;50.956;17.276;2023-03-01T00:31:15;-3.40;99.90
19943;DHT22;10133;50.956;17.276;2023-03-01T00:33:43;-3.40;99.90
19943;DHT22;10133;50.956;17.276;2023-03-01T00:36:12;-3.40;99.90
19943;DHT22;10133;50.956;17.276;2023-03-01T00:38:42;-3.40;99.90
19943;DHT22;10133;50.956;17.276;2023-03-01T00:41:14;-3.50;99.90
19943;DHT22;10133;50.956;17.276;2023-03-01T00:43:41;-3.50;99.90
19943;DHT22;10133;50.956;17.276;2023-03-01T00:46:14;-3.50;99.90
19943;DHT22;10133;50.956;17.276;2023-03-01T00:48:41;-3.50;99.90
19943;DHT22;10133;50.956;17.276;2023-03-01T00:53:40;-3.50;99.90
19943;DHT22;10133;50.956;17.276;2023-03-01T00:56:08;-3.50;99.90
19943;DHT22;10133;50.956;17.276;2023-03-01T00:58:35;-3.50;99.90
19943;DHT22;10133;50.956;17.276;2023-03-01T01:01:17;-3.50;99.90
19943;DHT22;10133;50.956;17.276;2023-03-01T01:03:50;-3.50;99.90
19943;DHT22;10133;50.956;17.276;2023-03-01T01:06:26;-3.50;99.90
19943;DHT22;10133;50.956;17.276;2023-03-01T01:08:54;-3.40;99.90
19943;DHT22;10133;50.956;17.276;2023-03-01T01:11:24;-3.50;99.90
19943;DHT22;10133;50.956;17.276;2023-03-01T01:13:52;-3.50;99.90
19943;DHT22;10133;50.956;17.276;2023-03-01T01:16:20;-3.50;99.90
19943;DHT22;10133;50.956;17.276;2023-03-01T01:18:48;-3.50;99.90
19943;DHT22;10133;50.956;17.276;2023-03-01T01:21:17;-3.50;99.90
19943;DHT22;10133;50.956;17.276;2023-03-01T01:23:46;-3.50;99.90
19943;DHT22;10133;50.956;17.276;2023-03-01T01:26:16;-3.50;99.90
19943;DHT22;10133;50.956;17.276;2023-03-01T01:28:43;-3.60;99.90
19943;DHT22;10133;50.956;17.276;2023-03-01T01:31:10;-3.60;99.90
19943;DHT22;10133;50.956;17.276;2023-03-01T01:33:37;-3.70;99.90
19943;DHT22;10133;50.956;17.276;2023-03-01T01:36:06;-3.70;99.90
19943;DHT22;10133;50.956;17.276;2023-03-01T01:38:34;-3.70;99.90
19943;DHT22;10133;50.956;17.276;2023-03-01T01:41:01;-3.70;99.90
19943;DHT22;10133;50.956;17.276;2023-03-01T01:43:35;-3.70;99.90
19943;DHT22;10133;50.956;17.276;2023-03-01T01:46:25;-3.80;99.90
19943;DHT22;10133;50.956;17.276;2023-03-01T01:51:49;-3.80;99.90
19943;DHT22;10133;50.956;17.276;2023-03-01T01:54:22;-3.90;99.90
19943;DHT22;10133;50.956;17.276;2023-03-01T01:56:59;-3.90;99.90
19943;DHT22;10133;50.956;17.276;2023-03-01T01:59:28;-3.90;99.90
19943;DHT22;10133;50.956;17.276;2023-03-01T02:02:00;-3.90;99.90
19943;DHT22;10133;50.956;17.276;2023-03-01T02:04:30;-3.90;99.90
19943;DHT22;10133;50.956;17.276;2023-03-01T02:07:13;-3.90;99.90
19943;DHT22;10133;50.956;17.276;2023-03-01T02:09:45;-3.90;99.90
19943;DHT22;10133;50.956;17.276;2023-03-01T02:12:15;-3.90;99.90
19943;DHT22;10133;50.956;17.276;2023-03-01T02:14:43;-3.90;99.90
19943;DHT22;10133;50.956;17.276;2023-03-01T02:17:11;-3.90;99.90
19943;DHT22;10133;50.956;17.276;2023-03-01T02:22:32;-3.90;99.90
19943;DHT22;10133;50.956;17.276;2023-03-01T02:30:29;-4.00;99.90
19943;DHT22;10133;50.956;17.276;2023-03-01T02:32:59;-4.00;99.90
19943;DHT22;10133;50.956;17.276;2023-03-01T02:35:37;-4.00;99.90
19943;DHT22;10133;50.956;17.276;2023-03-01T02:38:07;-4.00;99.90
19943;DHT22;10133;50.956;17.276;2023-03-01T02:40:36;-4.00;99.90
19943;DHT22;10133;50.956;17.276;2023-03-01T02:43:06;-4.00;99.90
19943;DHT22;10133;50.956;17.276;2023-03-01T02:45:34;-4.10;99.90
19943;DHT22;10133;50.956;17.276;2023-03-01T02:48:01;-4.10;99.90
19943;DHT22;10133;50.956;17.276;2023-03-01T02:53:07;-4.10;99.90
19943;DHT22;10133;50.956;17.276;2023-03-01T02:55:36;-4.10;99.90
19943;DHT22;10133;50.956;17.276;2023-03-01T02:58:03;-4.20;99.90
19943;DHT22;10133;50.956;17.276;2023-03-01T03:00:36;-4.20;99.90
19943;DHT22;10133;50.956;17.276;2023-03-01T03:03:07;-4.10;99.90
19943;DHT22;10133;50.956;17.276;2023-03-01T03:05:34;-4.20;99.90
19943;DHT22;10133;50.956;17.276;2023-03-01T03:08:02;-4.20;99.90
19943;DHT22;10133;50.956;17.276;2023-03-01T03:10:33;-4.20;99.90
19943;DHT22;10133;50.956;17.276;2023-03-01T03:13:03;-4.20;99.90
19943;DHT22;10133;50.956;17.276;2023-03-01T03:15:31;-4.20;99.90
19943;DHT22;10133;50.956;17.276;2023-03-01T03:17:58;-4.30;99.90
19943;DHT22;10133;50.956;17.276;2023-03-01T03:20:27;-4.30;99.90
19943;DHT22;10133;50.956;17.276;2023-03-01T03:22:56;-4.20;99.90
19943;DHT22;10133;50.956;17.276;2023-03-01T03:25:23;-4.30;99.90
19943;DHT22;10133;50.956;17.276;2023-03-01T03:27:52;-4.30;99.90
19943;DHT22;10133;50.956;17.276;2023-03-01T03:30:30;-4.30;99.90
19943;DHT22;10133;50.956;17.276;2023-03-01T03:32:58;-4.30;99.90
19943;DHT22;10133;50.956;17.276;2023-03-01T03:35:31;-4.30;99.90
19943;DHT22;10133;50.956;17.276;2023-03-01T03:38:03;-4.30;99.90
19943;DHT22;10133;50.956;17.276;2023-03-01T03:40:34;-4.30;99.90
19943;DHT22;10133;50.956;17.276;2023-03-01T03:43:02;-4.30;99.90
19943;DHT22;10133;50.956;17.276;2023-03-01T03:45:29;-4.30;99.90
19943;DHT22;10133;50.956;17.276;2023-03-01T03:48:00;-4.30;99.90
19943;DHT22;10133;50.956;17.276;2023-03-01T03:50:28;-4.30;99.90
19943;DHT22;10133;50.956;17.276;2023-03-01T03:52:55;-4.30;99.90
19943;DHT22;10133;50.956;17.276;2023-03-01T03:55:22;-4.40;99.90
19943;DHT22;10133;50.956;17.276;2023-03-01T03:57:49;-4.40;99.90
19943;DHT22;10133;50.956;17.276;2023-03-01T04:00:20;-4.40;99.90
19943;DHT22;10133;50.956;17.276;2023-03-01T04:02:48;-4.50;99.90
19943;DHT22;10133;50.956;17.276;2023-03-01T04:05:17;-4.50;99.90
19943;DHT22;10133;50.956;17.276;2023-03-01T04:07:45;-4.50;99.90
19943;DHT22;10133;50.956;17.276;2023-03-01T04:10:15;-4.60;99.90
19943;DHT22;10133;50.956;17.276;2023-03-01T04:12:42;-4.60;99.90
19943;DHT22;10133;50.956;17.276;2023-03-01T04:15:12;-4.60;99.90
19943;DHT22;10133;50.956;17.276;2023-03-01T04:17:46;-4.60;99.90
19943;DHT22;10133;50.956;17.276;2023-03-01T04:20:17;-4.60;99.90
19943;DHT22;10133;50.956;17.276;2023-03-01T04:23:07;-4.70;99.90
19943;DHT22;10133;50.956;17.276;2023-03-01T04:25:42;-4.70;99.90
19943;DHT22;10133;50.956;17.276;2023-03-01T04:28:09;-4.70;99.90
19943;DHT22;10133;50.956;17.276;2023-03-01T04:30:38;-4.60;99.90
19943;DHT22;10133;50.956;17.276;2023-03-01T04:33:06;-4.70;99.90
19943;DHT22;10133;50.956;17.276;2023-03-01T04:35:35;-4.60;99.90
19943;DHT22;10133;50.956;17.276;2023-03-01T04:38:03;-4.70;99.90
19943;DHT22;10133;50.956;17.276;2023-03-01T04:40:30;-4.70;99.90
19943;DHT22;10133;50.956;17.276;2023-03-01T04:42:57;-4.70;99.90
19943;DHT22;10133;50.956;17.276;2023-03-01T04:45:24;-4.70;99.90
19943;DHT22;10133;50.956;17.276;2023-03-01T04:47:51;-4.70;99.90
19943;DHT22;10133;50.956;17.276;2023-03-01T04:50:21;-4.70;99.90
19943;DHT22;10133;50.956;17.276;2023-03-01T04:52:51;-4.70;99.90
19943;DHT22;10133;50.956;17.276;2023-03-01T04:55:18;-4.70;99.90
19943;DHT22;10133;50.956;17.276;2023-03-01T04:57:46;-4.80;99.90
19943;DHT22;10133;50.956;17.276;2023-03-01T05:00:14;-4.80;99.90
19943;DHT22;10133;50.956;17.276;2023-03-01T05:02:47;-4.80;99.90
19943;DHT22;10133;50.956;17.276;2023-03-01T05:05:15;-4.80;99.90
19943;DHT22;10133;50.956;17.276;2023-03-01T05:07:42;-4.80;99.90
19943;DHT22;10133;50.956;17.276;2023-03-01T05:10:09;-4.90;99.90
19943;DHT22;10133;50.956;17.276;2023-03-01T05:12:36;-4.90;99.90
19943;DHT22;10133;50.956;17.276;2023-03-01T05:15:04;-4.90;99.90
19943;DHT22;10133;50.956;17.276;2023-03-01T05:17:34;-4.90;99.90
19943;DHT22;10133;50.956;17.276;2023-03-01T05:20:01;-4.90;99.90
19943;DHT22;10133;50.956;17.276;2023-03-01T05:22:30;-4.90;99.90
19943;DHT22;10133;50.956;17.276;2023-03-01T05:24:57;-4.90;99.90
19943;DHT22;10133;50.956;17.276;2023-03-01T05:27:23;-4.90;99.90
19943;DHT22;10133;50.956;17.276;2023-03-01T05:29:50;-4.90;99.90
19943;DHT22;10133;50.956;17.276;2023-03-01T05:32:17;-4.90;99.90
19943;DHT22;10133;50.956;17.276;2023-03-01T05:34:44;-4.90;99.90
19943;DHT22;10133;50.956;17.276;2023-03-01T05:37:13;-4.90;99.90
19943;DHT22;10133;50.956;17.276;2023-03-01T05:39:40;-5.00;99.90
19943;DHT22;10133;50.956;17.276;2023-03-01T05:42:10;-5.00;99.90
19943;DHT22;10133;50.956;17.276;2023-03-01T05:44:38;-5.00;99.90
19943;DHT22;10133;50.956;17.276;2023-03-01T05:47:05;-5.00;99.90
19943;DHT22;10133;50.956;17.276;2023-03-01T05:49:32;-4.90;99.90
19943;DHT22;10133;50.956;17.276;2023-03-01T05:51:59;-4.90;99.90
19943;DHT22;10133;50.956;17.276;2023-03-01T05:54:26;-4.90;99.90
19943;DHT22;10133;50.956;17.276;2023-03-01T05:56:53;-4.80;99.90
19943;DHT22;10133;50.956;17.276;2023-03-01T05:59:20;-4.80;99.90
19943;DHT22;10133;50.956;17.276;2023-03-01T06:01:46;-4.80;99.90
19943;DHT22;10133;50.956;17.276;2023-03-01T06:04:13;-4.70;99.90
19943;DHT22;10133;50.956;17.276;2023-03-01T06:06:40;-4.70;99.90
19943;DHT22;10133;50.956;17.276;2023-03-01T06:09:07;-4.60;99.90
19943;DHT22;10133;50.956;17.276;2023-03-01T06:11:36;-4.60;99.90
19943;DHT22;10133;50.956;17.276;2023-03-01T06:14:05;-4.50;99.90
19943;DHT22;10133;50.956;17.276;2023-03-01T06:16:33;-4.30;99.90
19943;DHT22;10133;50.956;17.276;2023-03-01T06:19:00;-4.10;99.90
19943;DHT22;10133;50.956;17.276;2023-03-01T06:21:26;-3.90;99.90
19943;DHT22;10133;50.956;17.276;2023-03-01T06:23:53;-3.50;99.90
19943;DHT22;10133;50.956;17.276;2023-03-01T06:26:20;-3.00;99.90
19943;DHT22;10133;50.956;17.276;2023-03-01T06:28:47;-2.30;99.90
19943;DHT22;10133;50.956;17.276;2023-03-01T06:31:14;-1.80;99.90
19943;DHT22;10133;50.956;17.276;2023-03-01T06:33:41;-1.40;99.90
19943;DHT22;10133;50.956;17.276;2023-03-01T06:36:08;-1.00;99.90
19943;DHT22;10133;50.956;17.276;2023-03-01T06:38:36;-0.70;99.90
19943;DHT22;10133;50.956;17.276;2023-03-01T06:41:03;-0.50;99.90
19943;DHT22;10133;50.956;17.276;2023-03-01T06:43:30;-0.40;99.90
19943;DHT22;10133;50.956;17.276;2023-03-01T06:45:57;-0.30;99.90
19943;DHT22;10133;50.956;17.276;2023-03-01T06:48:24;-0.10;99.90
19943;DHT22;10133;50.956;17.276;2023-03-01T06:50:51;0.10;99.90
19943;DHT22;10133;50.956;17.276;2023-03-01T06:53:18;0.30;99.90
19943;DHT22;10133;50.956;17.276;2023-03-01T06:55:44;0.70;99.90
19943;DHT22;10133;50.956;17.276;2023-03-01T06:58:11;1.10;99.90
19943;DHT22;10133;50.956;17.276;2023-03-01T07:00:38;1.70;99.90
19943;DHT22;10133;50.956;17.276;2023-03-01T07:03:08;2.40;99.90
19943;DHT22;10133;50.956;17.276;2023-03-01T07:05:35;3.30;99.90
19943;DHT22;10133;50.956;17.276;2023-03-01T07:08:02;4.30;99.90
19943;DHT22;10133;50.956;17.276;2023-03-01T07:10:29;5.40;99.90
19943;DHT22;10133;50.956;17.276;2023-03-01T07:12:57;6.40;99.90
19943;DHT22;10133;50.956;17.276;2023-03-01T07:15:25;7.70;99.90
19943;DHT22;10133;50.956;17.276;2023-03-01T07:17:53;9.00;99.90
19943;DHT22;10133;50.956;17.276;2023-03-01T07:20:20;10.10;96.10
19943;DHT22;10133;50.956;17.276;2023-03-01T07:22:55;11.20;91.60
19943;DHT22;10133;50.956;17.276;2023-03-01T07:25:25;12.30;85.00
19943;DHT22;10133;50.956;17.276;2023-03-01T07:27:52;13.40;76.40
19943;DHT22;10133;50.956;17.276;2023-03-01T07:30:20;14.40;72.40
19943;DHT22;10133;50.956;17.276;2023-03-01T07:32:47;15.40;67.90
19943;DHT22;10133;50.956;17.276;2023-03-01T07:35:15;16.40;64.60
19943;DHT22;10133;50.956;17.276;2023-03-01T07:37:42;17.40;61.80
19943;DHT22;10133;50.956;17.276;2023-03-01T07:40:09;18.00;59.40
19943;DHT22;10133;50.956;17.276;2023-03-01T07:42:37;18.70;57.50
19943;DHT22;10133;50.956;17.276;2023-03-01T07:45:05;19.40;55.70
19943;DHT22;10133;50.956;17.276;2023-03-01T07:47:32;20.10;53.70
19943;DHT22;10133;50.956;17.276;2023-03-01T07:49:59;20.70;52.20
19943;DHT22;10133;50.956;17.276;2023-03-01T07:52:28;21.50;51.50
19943;DHT22;10133;50.956;17.276;2023-03-01T07:54:55;22.30;47.70
19943;DHT22;10133;50.956;17.276;2023-03-01T07:57:22;22.50;48.50
19943;DHT22;10133;50.956;17.276;2023-03-01T07:59:49;23.00;47.80
19943;DHT22;10133;50.956;17.276;2023-03-01T08:02:16;23.40;46.60
19943;DHT22;10133;50.956;17.276;2023-03-01T08:07:10;24.30;44.40
19943;DHT22;10133;50.956;17.276;2023-03-01T08:09:37;25.50;42.60
19943;DHT22;10133;50.956;17.276;2023-03-01T08:12:05;25.60;43.20
19943;DHT22;10133;50.956;17.276;2023-03-01T08:14:32;26.00;43.30
19943;DHT22;10133;50.956;17.276;2023-03-01T08:16:59;26.50;41.50
19943;DHT22;10133;50.956;17.276;2023-03-01T08:19:26;26.90;40.00
19943;DHT22;10133;50.956;17.276;2023-03-01T08:21:54;27.30;39.10
19943;DHT22;10133;50.956;17.276;2023-03-01T08:24:25;27.60;38.90
19943;DHT22;10133;50.956;17.276;2023-03-01T08:26:52;28.10;38.40
19943;DHT22;10133;50.956;17.276;2023-03-01T08:29:19;28.50;38.40
19943;DHT22;10133;50.956;17.276;2023-03-01T08:31:46;28.70;37.00
19943;DHT22;10133;50.956;17.276;2023-03-01T08:34:15;29.00;37.10
19943;DHT22;10133;50.956;17.276;2023-03-01T08:36:44;29.20;36.50
19943;DHT22;10133;50.956;17.276;2023-03-01T08:39:14;29.30;36.50
19943;DHT22;10133;50.956;17.276;2023-03-01T08:41:41;29.50;36.20
19943;DHT22;10133;50.956;17.276;2023-03-01T08:44:10;30.10;36.00
19943;DHT22;10133;50.956;17.276;2023-03-01T08:46:40;30.60;35.30
19943;DHT22;10133;50.956;17.276;2023-03-01T08:49:08;31.00;33.60
19943;DHT22;10133;50.956;17.276;2023-03-01T08:51:35;31.40;33.60
19943;DHT22;10133;50.956;17.276;2023-03-01T08:54:10;31.80;33.40
19943;DHT22;10133;50.956;17.276;2023-03-01T08:56:38;31.90;32.70
19943;DHT22;10133;50.956;17.276;2023-03-01T08:59:05;32.30;32.20
19943;DHT22;10133;50.956;17.276;2023-03-01T09:01:32;32.50;31.40
19943;DHT22;10133;50.956;17.276;2023-03-01T09:03:59;32.30;30.50
19943;DHT22;10133;50.956;17.276;2023-03-01T09:06:26;31.70;31.00
19943;DHT22;10133;50.956;17.276;2023-03-01T09:08:53;31.60;32.60
19943;DHT22;10133;50.956;17.276;2023-03-01T09:11:22;31.50;33.00
19943;DHT22;10133;50.956;17.276;2023-03-01T09:13:49;31.50;33.10
19943;DHT22;10133;50.956;17.276;2023-03-01T09:16:18;31.60;33.10
19943;DHT22;10133;50.956;17.276;2023-03-01T09:18:49;31.90;32.60
19943;DHT22;10133;50.956;17.276;2023-03-01T09:21:18;32.00;32.20
19943;DHT22;10133;50.956;17.276;2023-03-01T09:24:03;32.20;31.80
19943;DHT22;10133;50.956;17.276;2023-03-01T09:26:30;32.40;31.60
19943;DHT22;10133;50.956;17.276;2023-03-01T09:28:57;32.60;31.70
19943;DHT22;10133;50.956;17.276;2023-03-01T09:31:24;32.60;31.70
19943;DHT22;10133;50.956;17.276;2023-03-01T09:33:52;32.70;31.60
19943;DHT22;10133;50.956;17.276;2023-03-01T09:36:22;33.10;30.80
19943;DHT22;10133;50.956;17.276;2023-03-01T09:38:52;33.30;30.40
19943;DHT22;10133;50.956;17.276;2023-03-01T09:41:26;33.50;30.00
19943;DHT22;10133;50.956;17.276;2023-03-01T09:44:03;33.60;30.50
19943;DHT22;10133;50.956;17.276;2023-03-01T09:46:40;34.00;29.60
19943;DHT22;10133;50.956;17.276;2023-03-01T09:49:15;34.30;29.00
19943;DHT22;10133;50.956;17.276;2023-03-01T09:52:06;34.50;28.90
19943;DHT22;10133;50.956;17.276;2023-03-01T09:54:36;34.60;28.90
19943;DHT22;10133;50.956;17.276;2023-03-01T09:57:32;34.70;28.90
19943;DHT22;10133;50.956;17.276;2023-03-01T10:00:09;35.00;28.40
19943;DHT22;10133;50.956;17.276;2023-03-01T10:02:52;35.10;28.10
19943;DHT22;10133;50.956;17.276;2023-03-01T10:05:49;35.40;27.90
19943;DHT22;10133;50.956;17.276;2023-03-01T10:08:33;35.80;27.80
19943;DHT22;10133;50.956;17.276;2023-03-01T10:11:05;35.80;27.50
19943;DHT22;10133;50.956;17.276;2023-03-01T10:16:16;36.40;27.20
19943;DHT22;10133;50.956;17.276;2023-03-01T10:18:47;36.50;27.30
19943;DHT22;10133;50.956;17.276;2023-03-01T10:21:20;36.70;27.20
19943;DHT22;10133;50.956;17.276;2023-03-01T10:23:50;36.80;26.90
19943;DHT22;10133;50.956;17.276;2023-03-01T10:29:14;37.10;26.90
19943;DHT22;10133;50.956;17.276;2023-03-01T10:31:50;37.20;26.60
19943;DHT22;10133;50.956;17.276;2023-03-01T10:34:27;37.00;26.70
19943;DHT22;10133;50.956;17.276;2023-03-01T10:36:57;37.20;26.60
19943;DHT22;10133;50.956;17.276;2023-03-01T10:39:26;37.20;26.40
19943;DHT22;10133;50.956;17.276;2023-03-01T10:47:14;36.80;26.60
19943;DHT22;10133;50.956;17.276;2023-03-01T10:50:05;36.90;26.10
19943;DHT22;10133;50.956;17.276;2023-03-01T10:52:35;36.70;26.10
19943;DHT22;10133;50.956;17.276;2023-03-01T10:57:48;36.40;26.00
19943;DHT22;10133;50.956;17.276;2023-03-01T11:00:25;36.20;26.30
19943;DHT22;10133;50.956;17.276;2023-03-01T11:05:26;36.10;26.30
19943;DHT22;10133;50.956;17.276;2023-03-01T11:07:56;35.90;26.90
19943;DHT22;10133;50.956;17.276;2023-03-01T11:10:31;35.50;26.90
19943;DHT22;10133;50.956;17.276;2023-03-01T11:13:18;35.30;27.20
19943;DHT22;10133;50.956;17.276;2023-03-01T11:16:00;35.00;27.30
19943;DHT22;10133;50.956;17.276;2023-03-01T11:18:29;34.80;27.80
19943;DHT22;10133;50.956;17.276;2023-03-01T11:21:13;34.50;27.70
19943;DHT22;10133;50.956;17.276;2023-03-01T11:23:40;33.60;27.10
19943;DHT22;10133;50.956;17.276;2023-03-01T11:26:09;33.00;27.70
19943;DHT22;10133;50.956;17.276;2023-03-01T11:28:40;32.50;28.40
19943;DHT22;10133;50.956;17.276;2023-03-01T11:31:10;31.70;29.20
19943;DHT22;10133;50.956;17.276;2023-03-01T11:38:54;29.00;29.80
19943;DHT22;10133;50.956;17.276;2023-03-01T11:41:29;28.30;30.10
19943;DHT22;10133;50.956;17.276;2023-03-01T11:43:58;27.70;31.00
19943;DHT22;10133;50.956;17.276;2023-03-01T12:07:00;16.50;45.00
19943;DHT22;10133;50.956;17.276;2023-03-01T12:12:38;14.60;48.50
19943;DHT22;10133;50.956;17.276;2023-03-01T12:29:00;11.70;53.90
19943;DHT22;10133;50.956;17.276;2023-03-01T12:31:50;11.50;53.60
19943;DHT22;10133;50.956;17.276;2023-03-01T12:37:15;11.10;54.20
19943;DHT22;10133;50.956;17.276;2023-03-01T12:50:43;10.60;56.10
19943;DHT22;10133;50.956;17.276;2023-03-01T12:53:24;10.50;56.80
19943;DHT22;10133;50.956;17.276;2023-03-01T12:55:54;10.40;57.60
19943;DHT22;10133;50.956;17.276;2023-03-01T13:04:29;10.10;59.60
19943;DHT22;10133;50.956;17.276;2023-03-01T13:07:13;10.10;59.30
19943;DHT22;10133;50.956;17.276;2023-03-01T13:17:55;10.00;60.50
19943;DHT22;10133;50.956;17.276;2023-03-01T13:30:58;10.00;59.30
19943;DHT22;10133;50.956;17.276;2023-03-01T13:35:59;10.10;60.90
19943;DHT22;10133;50.956;17.276;2023-03-01T13:38:46;10.30;61.50
19943;DHT22;10133;50.956;17.276;2023-03-01T13:41:15;10.60;62.10
19943;DHT22;10133;50.956;17.276;2023-03-01T13:43:45;10.90;61.50
19943;DHT22;10133;50.956;17.276;2023-03-01T13:46:16;11.20;60.40
19943;DHT22;10133;50.956;17.276;2023-03-01T13:48:47;11.40;59.00
19943;DHT22;10133;50.956;17.276;2023-03-01T13:51:15;11.60;58.50
19943;DHT22;10133;50.956;17.276;2023-03-01T13:53:44;11.60;57.20
19943;DHT22;10133;50.956;17.276;2023-03-01T13:56:20;11.70;56.90
19943;DHT22;10133;50.956;17.276;2023-03-01T13:58:55;11.60;56.80
19943;DHT22;10133;50.956;17.276;2023-03-01T14:01:33;11.50;57.70
19943;DHT22;10133;50.956;17.276;2023-03-01T14:04:03;11.40;57.10
19943;DHT22;10133;50.956;17.276;2023-03-01T14:06:33;11.30;57.30
19943;DHT22;10133;50.956;17.276;2023-03-01T14:09:10;11.30;56.30
19943;DHT22;10133;50.956;17.276;2023-03-01T14:14:46;11.00;55.50
19943;DHT22;10133;50.956;17.276;2023-03-01T14:20:30;10.70;55.80
19943;DHT22;10133;50.956;17.276;2023-03-01T14:23:02;10.50;57.00
19943;DHT22;10133;50.956;17.276;2023-03-01T14:25:35;10.30;57.10
19943;DHT22;10133;50.956;17.276;2023-03-01T14:30:53;10.00;55.60
19943;DHT22;10133;50.956;17.276;2023-03-01T14:33:26;9.80;56.10
19943;DHT22;10133;50.956;17.276;2023-03-01T14:36:06;9.70;56.50
19943;DHT22;10133;50.956;17.276;2023-03-01T14:38:36;9.50;57.70
19943;DHT22;10133;50.956;17.276;2023-03-01T14:41:13;9.30;58.50
19943;DHT22;10133;50.956;17.276;2023-03-01T14:43:45;9.20;58.10
19943;DHT22;10133;50.956;17.276;2023-03-01T14:46:37;9.10;58.40
19943;DHT22;10133;50.956;17.276;2023-03-01T14:49:15;9.00;58.70
19943;DHT22;10133;50.956;17.276;2023-03-01T14:54:43;8.70;59.10
19943;DHT22;10133;50.956;17.276;2023-03-01T14:57:19;8.50;58.40
19943;DHT22;10133;50.956;17.276;2023-03-01T14:59:46;8.40;58.00
19943;DHT22;10133;50.956;17.276;2023-03-01T15:02:17;8.30;57.60
19943;DHT22;10133;50.956;17.276;2023-03-01T15:04:49;8.20;57.50
19943;DHT22;10133;50.956;17.276;2023-03-01T15:07:17;8.10;57.00
19943;DHT22;10133;50.956;17.276;2023-03-01T15:09:45;7.90;57.30
19943;DHT22;10133;50.956;17.276;2023-03-01T15:14:56;7.70;58.30
19943;DHT22;10133;50.956;17.276;2023-03-01T15:17:35;7.60;58.20
19943;DHT22;10133;50.956;17.276;2023-03-01T15:20:06;7.40;58.20
19943;DHT22;10133;50.956;17.276;2023-03-01T15:22:33;7.30;58.20
19943;DHT22;10133;50.956;17.276;2023-03-01T15:25:01;7.20;58.30
19943;DHT22;10133;50.956;17.276;2023-03-01T15:27:28;7.10;58.60
19943;DHT22;10133;50.956;17.276;2023-03-01T15:29:58;7.00;59.20
19943;DHT22;10133;50.956;17.276;2023-03-01T15:32:34;6.90;60.00
19943;DHT22;10133;50.956;17.276;2023-03-01T15:35:43;6.80;59.40
19943;DHT22;10133;50.956;17.276;2023-03-01T15:38:33;6.70;60.10
19943;DHT22;10133;50.956;17.276;2023-03-01T15:41:03;6.60;61.40
19943;DHT22;10133;50.956;17.276;2023-03-01T15:43:44;6.50;63.00
19943;DHT22;10133;50.956;17.276;2023-03-01T15:46:38;6.40;64.30
19943;DHT22;10133;50.956;17.276;2023-03-01T15:49:38;6.20;65.00
19943;DHT22;10133;50.956;17.276;2023-03-01T15:52:35;6.10;63.60
19943;DHT22;10133;50.956;17.276;2023-03-01T15:55:20;6.10;63.10
19943;DHT22;10133;50.956;17.276;2023-03-01T15:57:48;6.00;63.30
19943;DHT22;10133;50.956;17.276;2023-03-01T16:00:16;5.90;63.70
19943;DHT22;10133;50.956;17.276;2023-03-01T16:02:45;5.80;64.20
19943;DHT22;10133;50.956;17.276;2023-03-01T16:05:23;5.70;64.40
19943;DHT22;10133;50.956;17.276;2023-03-01T16:07:51;5.60;64.50
19943;DHT22;10133;50.956;17.276;2023-03-01T16:10:18;5.50;64.70
19943;DHT22;10133;50.956;17.276;2023-03-01T16:12:45;5.50;65.00
19943;DHT22;10133;50.956;17.276;2023-03-01T16:15:18;5.40;65.40
19943;DHT22;10133;50.956;17.276;2023-03-01T16:17:45;5.30;65.70
19943;DHT22;10133;50.956;17.276;2023-03-01T16:20:13;5.20;66.10
19943;DHT22;10133;50.956;17.276;2023-03-01T16:22:53;5.10;66.30
19943;DHT22;10133;50.956;17.276;2023-03-01T16:25:21;5.10;66.40
19943;DHT22;10133;50.956;17.276;2023-03-01T16:27:49;5.00;66.70
19943;DHT22;10133;50.956;17.276;2023-03-01T16:30:19;4.90;67.20
19943;DHT22;10133;50.956;17.276;2023-03-01T16:32:48;4.80;67.80
19943;DHT22;10133;50.956;17.276;2023-03-01T16:35:18;4.70;67.90
19943;DHT22;10133;50.956;17.276;2023-03-01T16:37:46;4.60;68.40
19943;DHT22;10133;50.956;17.276;2023-03-01T16:40:27;4.50;68.80
19943;DHT22;10133;50.956;17.276;2023-03-01T16:42:55;4.40;69.40
19943;DHT22;10133;50.956;17.276;2023-03-01T16:45:28;4.30;69.30
19943;DHT22;10133;50.956;17.276;2023-03-01T16:47:55;4.20;69.40
19943;DHT22;10133;50.956;17.276;2023-03-01T16:55:17;3.40;71.70
19943;DHT22;10133;50.956;17.276;2023-03-01T16:57:44;3.70;74.40
19943;DHT22;10133;50.956;17.276;2023-03-01T17:00:12;3.70;69.50
19943;DHT22;10133;50.956;17.276;2023-03-01T17:02:40;3.70;78.80
19943;DHT22;10133;50.956;17.276;2023-03-01T17:05:08;3.50;71.70
19943;DHT22;10133;50.956;17.276;2023-03-01T17:10:06;3.50;79.70
19943;DHT22;10133;50.956;17.276;2023-03-01T17:15:03;2.90;74.30
19943;DHT22;10133;50.956;17.276;2023-03-01T17:22:29;2.90;81.30
19943;DHT22;10133;50.956;17.276;2023-03-01T17:27:23;1.90;92.10
19943;DHT22;10133;50.956;17.276;2023-03-01T17:29:51;2.20;79.50
19943;DHT22;10133;50.956;17.276;2023-03-01T17:37:13;1.90;93.60
19943;DHT22;10133;50.956;17.276;2023-03-01T17:44:34;1.50;84.50
19943;DHT22;10133;50.956;17.276;2023-03-01T17:47:02;1.20;91.70
19943;DHT22;10133;50.956;17.276;2023-03-01T17:49:30;1.10;92.80
19943;DHT22;10133;50.956;17.276;2023-03-01T17:51:58;0.60;92.20
19943;DHT22;10133;50.956;17.276;2023-03-01T17:54:24;1.20;90.40
19943;DHT22;10133;50.956;17.276;2023-03-01T17:56:51;1.20;91.50
19943;DHT22;10133;50.956;17.276;2023-03-01T17:59:18;1.10;92.80
19943;DHT22;10133;50.956;17.276;2023-03-01T18:01:45;1.00;94.00
19943;DHT22;10133;50.956;17.276;2023-03-01T18:04:13;1.00;95.30
19943;DHT22;10133;50.956;17.276;2023-03-01T18:06:40;0.90;96.60
19943;DHT22;10133;50.956;17.276;2023-03-01T18:09:07;1.60;98.30
19943;DHT22;10133;50.956;17.276;2023-03-01T18:11:35;0.80;99.70
19943;DHT22;10133;50.956;17.276;2023-03-01T18:14:03;0.70;99.90
19943;DHT22;10133;50.956;17.276;2023-03-01T18:16:30;0.70;99.90
19943;DHT22;10133;50.956;17.276;2023-03-01T18:19:02;0.60;99.90
19943;DHT22;10133;50.956;17.276;2023-03-01T18:21:29;0.50;99.90